Time;durP1;ratioP1;P1;durP2;ratioP2;P2;SDS_P1;SDS_P2;PMS_P1;PMS_P2;Temp;Humidity;BMP_temperature;BMP_pressure;BME280_temperature;BME280_humidity;BME280_pressure;Samples;Min_cycle;Max_cycle;Signal;HPM_P1;HPM_P2
2021/12/03 00:01:52;;;;;;;5.70;2.88;;;1.60;29.70;;;1.46;80.62;97167.03;5007500;28;119306;-77
2021/12/03 00:04:21;;;;;;;7.43;3.30;;;1.60;31.70;;;1.51;81.02;97158.88;5005093;28;129763;-77
2021/12/03 00:06:49;;;;;;;6.60;3.03;;;1.50;33.40;;;1.41;80.66;97166.06;5004735;28;129508;-77
2021/12/03 00:09:19;;;;;;;5.50;2.75;;;1.50;32.30;;;1.59;80.13;97171.47;5005254;28;120169;-76
2021/12/03 00:11:48;;;;;;;5.05;3.05;;;1.50;32.10;;;1.59;80.60;97171.47;5007667;28;118460;-76
2021/12/03 00:14:16;;;;;;;4.75;2.80;;;1.50;34.50;;;1.55;80.65;97170.53;5006713;28;129725;-76
2021/12/03 00:16:45;;;;;;;5.47;3.15;;;1.50;33.70;;;1.63;79.96;97177.03;5007590;28;129813;-77
2021/12/03 00:19:21;;;;;;;6.93;3.40;;;1.50;34.70;;;1.67;79.13;97176.09;5019079;28;121916;-77
2021/12/03 00:21:50;;;;;;;5.47;3.63;;;1.50;32.10;;;1.73;78.74;97182.88;5004870;28;121666;-77
2021/12/03 00:24:20;;;;;;;6.70;3.60;;;1.50;32.00;;;1.58;78.93;97177.94;5003434;28;130138;-78
2021/12/03 00:27:07;;;;;;;5.88;3.28;;;1.50;29.50;;;1.47;79.17;97180.09;5004582;28;130440;-78
2021/12/03 00:29:36;;;;;;;5.25;2.85;;;1.50;29.50;;;1.50;78.83;97178.72;5023776;28;118859;-78
2021/12/03 00:32:06;;;;;;;5.25;3.13;;;1.50;28.90;;;1.56;79.13;97177.47;5005956;28;119399;-78
2021/12/03 00:34:35;;;;;;;5.47;3.17;;;1.60;29.90;;;1.52;79.58;97176.50;5004446;28;130329;-78
2021/12/03 00:37:04;;;;;;;5.75;2.97;;;1.50;30.20;;;1.57;78.99;97179.03;5023865;28;129192;-79
2021/12/03 00:39:34;;;;;;;8.00;3.25;;;1.50;29.30;;;1.53;78.95;97183.44;5004596;28;119629;-77
2021/12/03 00:42:04;;;;;;;5.85;3.33;;;1.50;29.20;;;1.44;78.21;97170.81;5004636;28;119618;-77
2021/12/03 00:44:33;;;;;;;5.88;3.10;;;1.60;28.10;;;1.46;78.15;97164.38;5003308;28;129924;-77
2021/12/03 00:47:01;;;;;;;8.45;3.25;;;1.60;27.60;;;1.43;79.55;97174.59;5004359;28;130197;-77
2021/12/03 00:49:30;;;;;;;5.00;3.20;;;1.60;28.90;;;1.55;78.98;97181.25;5006270;28;118777;-78
2021/12/03 00:51:58;;;;;;;5.57;3.20;;;1.50;29.00;;;1.60;79.50;97173.84;4987789;28;119369;-78
2021/12/03 00:54:27;;;;;;;6.13;3.38;;;1.50;30.10;;;1.63;79.39;97177.81;4984104;28;129946;-77
2021/12/03 00:56:57;;;;;;;5.68;2.80;;;1.50;31.00;;;1.60;78.77;97178.41;4983718;28;129751;-77
2021/12/03 00:59:26;;;;;;;6.88;3.33;;;1.50;29.70;;;1.54;79.33;97179.66;4965828;28;119872;-78
2021/12/03 01:01:54;;;;;;;6.18;3.30;;;1.50;30.00;;;1.54;79.43;97179.66;4985732;28;119468;-77
2021/12/03 01:04:23;;;;;;;6.75;3.80;;;1.50;30.80;;;1.56;79.45;97172.13;4986435;28;130236;-77
2021/12/03 01:06:59;;;;;;;8.32;3.42;;;1.40;31.90;;;1.62;79.49;97181.56;4986927;28;130096;-77
2021/12/03 01:09:28;;;;;;;5.13;3.50;;;1.40;31.90;;;1.56;79.40;97182.81;4968632;28;121401;-77
2021/12/03 01:11:58;;;;;;;7.00;3.40;;;1.40;31.80;;;1.46;79.52;97177.75;4984130;28;122462;-78
2021/12/03 01:14:27;;;;;;;7.60;3.47;;;1.40;31.10;;;1.46;80.02;97178.53;4966272;28;130046;-78
2021/12/03 01:16:56;;;;;;;6.30;3.50;;;1.40;31.70;;;1.39;80.30;97184.31;4969309;28;129665;-78
2021/12/03 01:19:25;;;;;;;5.63;3.38;;;1.40;32.00;;;1.47;79.95;97180.09;4984124;28;119710;-78
2021/12/03 01:21:54;;;;;;;5.68;3.53;;;1.40;31.90;;;1.29;80.28;97199.81;4985183;28;119423;-77
2021/12/03 01:24:23;;;;;;;5.28;2.95;;;1.40;31.80;;;1.37;79.66;97194.53;4969034;28;128701;-77
2021/12/03 01:26:54;;;;;;;6.60;3.70;;;1.40;30.70;;;1.37;80.29;97197.22;4984231;28;129835;-76
2021/12/03 01:29:26;;;;;;;6.35;3.10;;;1.40;31.90;;;1.40;80.10;97212.63;4984165;28;119449;-77
2021/12/03 01:31:57;;;;;;;5.82;3.30;;;1.40;32.00;;;1.43;78.73;97216.56;4953129;28;118588;-76
2021/12/03 01:34:25;;;;;;;7.00;3.17;;;1.40;29.60;;;1.35;80.10;97223.44;4951193;28;129445;-77
2021/12/03 01:36:55;;;;;;;7.65;3.45;;;1.40;31.30;;;1.39;80.43;97224.41;4984844;28;130727;-76
2021/12/03 01:39:23;;;;;;;7.40;3.30;;;1.40;31.70;;;1.32;80.11;97210.69;4985851;28;119686;-75
2021/12/03 01:41:52;;;;;;;7.20;3.50;;;1.40;31.50;;;1.37;79.38;97210.56;4968832;28;119839;-76
2021/12/03 01:44:20;;;;;;;6.65;2.97;;;1.40;29.60;;;1.35;79.17;97214.63;4985671;28;130026;-76
2021/12/03 01:46:50;;;;;;;5.82;3.40;;;1.40;29.60;;;1.33;80.34;97228.31;4983262;28;129888;-76
2021/12/03 01:49:19;;;;;;;7.00;3.40;;;1.40;30.70;;;1.43;79.49;97224.56;4966295;28;119730;-77
2021/12/03 01:51:48;;;;;;;7.05;3.45;;;1.40;30.00;;;1.49;78.88;97227.91;4986670;28;119635;-78
2021/12/03 01:54:17;;;;;;;5.13;3.50;;;1.40;30.00;;;1.48;79.38;97242.38;4968702;28;128752;-77
2021/12/03 01:56:50;;;;;;;5.50;3.30;;;1.40;30.60;;;1.44;79.35;97234.97;4969215;28;129383;-77
2021/12/03 01:59:19;;;;;;;6.57;3.47;;;1.40;30.40;;;1.32;80.32;97242.75;4981672;28;122532;-77
2021/12/03 02:01:49;;;;;;;5.60;3.30;;;1.40;31.70;;;1.15;80.92;97238.09;4983795;28;121876;-76
2021/12/03 02:04:17;;;;;;;5.93;3.85;;;1.30;31.40;;;1.32;79.84;97241.97;4984069;28;130093;-76
2021/12/03 02:06:46;;;;;;;6.38;3.60;;;1.30;30.30;;;1.36;80.17;97254.41;4982015;28;129979;-77
2021/12/03 02:09:14;;;;;;;10.05;4.30;;;1.40;30.90;;;1.37;80.08;97239.97;4967154;28;119513;-77
2021/12/03 02:11:43;;;;;;;9.63;4.35;;;1.40;30.70;;;1.36;79.82;97248.28;4982349;28;119559;-76
2021/12/03 02:14:13;;;;;;;7.28;4.05;;;1.30;30.60;;;1.27;80.27;97245.56;4983904;28;129880;-76
2021/12/03 02:16:45;;;;;;;7.55;3.95;;;1.30;31.70;;;1.31;80.07;97251.06;4972486;28;129654;-76
2021/12/03 02:19:15;;;;;;;5.80;3.20;;;1.30;31.10;;;1.27;80.59;97250.91;4971396;28;119617;-77
2021/12/03 02:21:46;;;;;;;5.10;3.25;;;1.20;32.40;;;1.22;80.76;97262.50;4956064;28;118642;-77
2021/12/03 02:24:15;;;;;;;7.68;3.95;;;1.10;33.70;;;1.21;80.64;97268.16;4967681;28;130018;-77
2021/12/03 02:26:44;;;;;;;5.43;3.55;;;1.10;33.90;;;1.11;81.33;97269.19;4986486;28;129893;-76
2021/12/03 02:29:13;;;;;;;6.90;3.88;;;1.10;34.20;;;0.97;81.63;97274.59;4988670;28;119957;-76
2021/12/03 02:31:41;;;;;;;5.88;3.30;;;1.10;33.60;;;0.91;82.34;97281.16;4986747;28;119106;-76
2021/12/03 02:34:10;;;;;;;6.80;3.83;;;1.00;34.10;;;1.02;81.97;97282.47;4971743;28;129428;-78
2021/12/03 02:36:39;;;;;;;5.82;3.70;;;1.00;34.90;;;1.10;81.86;97290.88;4987045;28;129992;-77
2021/12/03 02:39:09;;;;;;;7.25;4.75;;;1.00;35.20;;;1.09;81.71;97287.38;4986707;28;119548;-78
2021/12/03 02:41:38;;;;;;;6.63;3.80;;;1.10;34.50;;;1.12;81.95;97286.00;4987109;28;119481;-78
2021/12/03 02:44:14;;;;;;;7.75;4.05;;;1.00;35.70;;;1.06;81.48;97288.00;4989228;28;131464;-77
2021/12/03 02:46:43;;;;;;;6.63;4.05;;;1.10;34.20;;;1.00;82.43;97267.88;4971783;28;129379;-77
2021/12/03 02:49:14;;;;;;;6.40;3.83;;;1.10;35.50;;;1.01;82.76;97296.94;4985360;28;122389;-77
2021/12/03 02:51:43;;;;;;;7.45;3.97;;;1.10;36.20;;;1.06;82.29;97294.16;4986171;28;120940;-77
2021/12/03 02:54:13;;;;;;;6.25;3.72;;;1.10;36.20;;;1.02;82.84;97301.19;5007945;28;129692;-77
2021/12/03 02:56:41;;;;;;;6.78;4.25;;;1.00;36.30;;;0.99;83.34;97306.34;5006016;28;129670;-77
2021/12/03 02:59:10;;;;;;;8.13;4.43;;;1.00;37.80;;;1.05;82.80;97305.91;5006018;28;119764;-77
2021/12/03 03:01:39;;;;;;;6.40;3.83;;;1.00;36.50;;;0.96;83.10;97313.06;5008382;28;119141;-77
2021/12/03 03:04:07;;;;;;;6.15;3.65;;;1.00;37.30;;;0.93;83.39;97308.31;5006070;28;130057;-78
2021/12/03 03:06:36;;;;;;;5.60;3.80;;;1.00;37.90;;;0.85;83.37;97314.41;5008366;28;129466;-77
2021/12/03 03:09:08;;;;;;;7.53;4.03;;;0.90;38.00;;;0.78;84.58;97298.00;5005226;28;119603;-77
2021/12/03 03:11:38;;;;;;;6.43;4.05;;;0.90;39.70;;;0.85;84.42;97298.38;5008200;28;118872;-79
2021/12/03 03:14:07;;;;;;;7.25;4.10;;;0.90;40.60;;;0.88;84.14;97303.13;5004913;28;129881;-80
2021/12/03 03:16:36;;;;;;;7.60;4.15;;;0.80;40.60;;;0.83;84.64;97305.91;5024614;28;129997;-81
2021/12/03 03:19:12;;;;;;;7.43;4.30;;;0.80;40.90;;;0.80;84.23;97301.94;5008185;28;119605;-80
2021/12/03 03:21:41;;;;;;;6.40;4.30;;;0.80;41.60;;;0.85;84.65;97309.84;5010166;28;120233;-80
2021/12/03 03:24:12;;;;;;;10.30;4.93;;;0.80;42.40;;;0.75;85.07;97303.94;5042539;27;129688;-80
2021/12/03 03:26:45;;;;;;;7.10;4.32;;;0.80;43.20;;;0.81;84.66;97308.06;5027459;27;129117;-79
2021/12/03 03:29:17;;;;;;;7.90;3.97;;;0.80;42.80;;;0.79;85.00;97299.56;5027733;28;117996;-81
2021/12/03 03:31:46;;;;;;;8.07;4.40;;;0.70;42.70;;;0.64;85.88;97293.50;5028072;28;119163;-79
2021/12/03 03:34:15;;;;;;;6.72;4.05;;;0.70;43.90;;;0.72;85.81;97294.66;5025459;28;130458;-79
2021/12/03 03:36:45;;;;;;;8.05;4.55;;;0.70;44.80;;;0.73;85.17;97296.22;5025170;28;129771;-80
2021/12/03 03:39:16;;;;;;;7.57;4.70;;;0.60;45.20;;;0.68;85.63;97291.78;5024258;28;122016;-79
2021/12/03 03:41:49;;;;;;;6.43;3.97;;;0.50;45.90;;;0.62;85.86;97300.19;5025317;28;122387;-79
2021/12/03 03:44:18;;;;;;;5.55;3.90;;;0.50;46.00;;;0.51;86.33;97294.28;5024444;28;130443;-80
2021/12/03 03:46:50;;;;;;;7.97;4.55;;;0.60;45.60;;;0.58;85.83;97294.69;5026453;27;129872;-80
2021/12/03 03:49:45;;;;;;;6.60;4.05;;;0.60;44.90;;;0.62;86.21;97292.97;5027647;28;120006;-79
2021/12/03 03:52:13;;;;;;;6.93;3.95;;;0.70;45.50;;;0.60;86.15;97297.84;5007353;28;118336;-78
2021/12/03 03:54:43;;;;;;;5.95;3.67;;;0.70;44.80;;;0.74;85.65;97281.78;5003900;28;129984;-78
2021/12/03 03:57:13;;;;;;;8.73;4.40;;;0.70;44.90;;;0.71;85.79;97277.81;5005514;28;129658;-79
2021/12/03 03:59:42;;;;;;;7.15;4.00;;;0.70;45.10;;;0.80;85.54;97285.16;5005458;28;119515;-79
2021/12/03 04:02:11;;;;;;;7.68;4.03;;;0.60;45.60;;;0.85;85.17;97282.34;5005160;28;119816;-78
2021/12/03 04:04:40;;;;;;;6.65;4.00;;;0.60;45.40;;;0.81;84.84;97297.38;5002551;28;130524;-79
2021/12/03 04:07:08;;;;;;;6.07;4.18;;;0.60;44.80;;;0.89;84.72;97289.47;5003615;28;129970;-80
2021/12/03 04:09:37;;;;;;;5.90;3.83;;;0.70;44.90;;;0.85;85.01;97299.16;5005381;28;119943;-80
2021/12/03 04:12:07;;;;;;;7.10;3.67;;;0.70;44.90;;;0.84;84.85;97307.47;5023949;28;119272;-81
2021/12/03 04:14:37;;;;;;;5.15;3.15;;;0.70;43.70;;;0.86;84.98;97310.66;5007070;28;129267;-80
2021/12/03 04:17:06;;;;;;;7.32;4.05;;;0.70;44.60;;;0.81;85.76;97306.19;5004659;28;130939;-80
2021/12/03 04:19:35;;;;;;;7.78;3.83;;;0.80;45.10;;;0.90;85.08;97306.25;5005122;28;120454;-77
2021/12/03 04:22:05;;;;;;;6.70;3.72;;;0.80;45.00;;;0.90;84.50;97306.25;5004356;28;119552;-80
2021/12/03 04:24:34;;;;;;;7.78;3.92;;;0.80;42.20;;;0.90;84.38;97327.63;5003993;28;130343;-78
2021/12/03 04:27:03;;;;;;;6.45;3.50;;;0.80;41.90;;;0.71;85.41;97331.22;5006571;28;129414;-79
2021/12/03 04:29:31;;;;;;;5.75;3.45;;;0.80;43.00;;;0.88;85.04;97338.59;5022339;28;121515;-80
2021/12/03 04:32:01;;;;;;;7.10;3.70;;;0.80;43.30;;;0.94;85.34;97333.19;5007331;28;121325;-80
2021/12/03 04:34:30;;;;;;;5.88;3.65;;;0.80;44.60;;;0.83;84.75;97333.38;5006579;28;128770;-81
2021/12/03 04:37:07;;;;;;;6.70;3.90;;;0.80;43.40;;;0.92;84.62;97341.50;5003841;28;129655;-81
2021/12/03 04:39:35;;;;;;;7.53;4.13;;;0.80;43.50;;;0.87;85.43;97345.06;5006503;28;119574;-80
2021/12/03 04:42:05;;;;;;;9.30;4.88;;;0.80;44.20;;;0.93;85.00;97343.06;5004656;28;119975;-81
2021/12/03 04:44:35;;;;;;;6.80;4.18;;;0.80;44.10;;;0.98;84.78;97361.66;5006370;28;129615;-81
2021/12/03 04:47:07;;;;;;;5.95;3.80;;;0.80;43.70;;;0.85;85.29;97341.88;4990026;28;128985;-81
2021/12/03 04:49:36;;;;;;;9.55;4.63;;;0.90;43.40;;;1.01;84.98;97345.03;5007705;28;119670;-81
2021/12/03 04:52:25;;;;;;;7.70;4.13;;;0.90;44.40;;;0.97;85.41;97353.94;5044512;27;119853;-80
2021/12/03 04:54:54;;;;;;;7.90;4.45;;;0.80;45.00;;;1.08;84.26;97357.97;5011965;27;128910;-81
2021/12/03 04:57:23;;;;;;;9.75;5.10;;;0.90;45.00;;;1.09;84.55;97362.19;5012850;27;128803;-81
2021/12/03 04:59:51;;;;;;;8.77;4.55;;;0.90;44.30;;;1.05;85.32;97359.34;5030206;27;118982;-82
2021/12/03 05:02:24;;;;;;;7.47;4.38;;;0.90;45.90;;;1.07;85.11;97375.06;5044398;27;119801;-81
2021/12/03 05:04:55;;;;;;;9.63;4.68;;;0.90;45.40;;;1.07;84.82;97369.72;5012612;27;128925;-80
2021/12/03 05:07:32;;;;;;;8.20;4.88;;;0.90;44.90;;;1.05;85.25;97375.38;5012255;27;128995;-81
2021/12/03 05:10:00;;;;;;;8.60;5.03;;;0.90;45.10;;;1.05;85.13;97372.69;5028998;27;118910;-81
2021/12/03 05:12:30;;;;;;;9.00;5.13;;;0.90;45.10;;;0.95;85.57;97369.47;5029584;27;118336;-80
2021/12/03 05:15:00;;;;;;;6.10;3.92;;;0.90;45.00;;;1.00;85.14;97380.84;5029436;27;129404;-81
2021/12/03 05:17:30;;;;;;;7.32;4.05;;;0.90;44.40;;;0.95;84.75;97380.94;5044232;27;129916;-81
2021/12/03 05:19:59;;;;;;;7.43;4.13;;;0.90;42.70;;;1.06;84.47;97379.63;5026783;27;121876;-81
2021/12/03 05:22:27;;;;;;;7.43;4.15;;;0.90;42.20;;;1.02;84.42;97381.31;5024645;27;121764;-80
2021/12/03 05:24:56;;;;;;;7.57;4.00;;;0.90;41.10;;;1.00;84.04;97380.84;5030798;27;128818;-80
2021/12/03 05:27:24;;;;;;;6.97;3.40;;;0.90;40.80;;;0.86;84.97;97388.09;5029839;27;129866;-81
2021/12/03 05:29:53;;;;;;;6.60;3.72;;;0.90;41.60;;;0.99;84.57;97381.91;5030094;27;118849;-81
2021/12/03 05:32:21;;;;;;;7.43;3.40;;;0.90;41.70;;;1.04;83.91;97387.16;5028661;27;119393;-81
2021/12/03 05:34:52;;;;;;;6.13;3.70;;;0.90;40.60;;;1.04;83.83;97375.66;5043100;27;129776;-81
2021/12/03 05:37:21;;;;;;;5.93;3.40;;;0.90;40.60;;;1.05;83.44;97383.38;5044551;27;129791;-80
2021/12/03 05:39:55;;;;;;;6.40;3.90;;;0.90;39.60;;;1.03;83.25;97390.13;5029543;27;118464;-79
2021/12/03 05:42:24;;;;;;;6.80;3.75;;;1.00;38.50;;;1.01;83.52;97387.78;4994740;27;118361;-72
2021/12/03 05:44:53;;;;;;;5.18;3.60;;;1.00;39.20;;;1.12;83.11;97392.88;5025716;27;129313;-72
2021/12/03 05:47:22;;;;;;;6.93;3.92;;;1.00;39.40;;;1.16;82.90;97383.94;5043836;27;130103;-72
2021/12/03 05:49:52;;;;;;;5.40;3.30;;;1.00;39.40;;;1.27;81.59;97400.56;5030024;27;119350;-71
2021/12/03 05:52:21;;;;;;;6.22;4.20;;;1.00;36.50;;;1.25;80.87;97398.19;5049228;27;119502;-71
2021/12/03 05:54:49;;;;;;;6.40;2.88;;;1.00;34.50;;;1.23;79.59;97399.56;5046161;27;129924;-73
2021/12/03 05:57:19;;;;;;;7.10;2.83;;;1.10;31.20;;;1.11;79.53;97404.63;5046202;27;129795;-73
2021/12/03 05:59:47;;;;;;;7.35;3.40;;;1.10;29.90;;;1.09;79.93;97407.63;5047490;27;119411;-79
2021/12/03 06:02:16;;;;;;;4.70;3.08;;;1.10;30.10;;;0.94;79.84;97399.94;5029322;27;119395;-77
2021/12/03 06:04:45;;;;;;;6.00;2.88;;;1.00;29.90;;;0.95;79.64;97404.19;5029144;27;129737;-78
2021/12/03 06:07:21;;;;;;;4.88;2.75;;;1.00;29.50;;;0.94;79.90;97411.41;5045718;27;129671;-76
2021/12/03 06:09:50;;;;;;;5.70;2.80;;;1.00;29.20;;;0.95;79.16;97410.34;5029643;27;121196;-72
2021/12/03 06:12:18;;;;;;;7.90;2.80;;;1.00;28.30;;;0.91;79.70;97414.69;5047496;27;122359;-75
2021/12/03 06:14:47;;;;;;;6.78;4.22;;;1.00;28.40;;;0.96;78.79;97416.47;5031679;27;129828;-76
2021/12/03 06:17:16;;;;;;;4.50;2.83;;;1.00;28.00;;;0.97;79.04;97429.50;5050151;27;131248;-75
2021/12/03 06:19:45;;;;;;;3.83;2.40;;;1.00;27.70;;;0.89;78.59;97427.56;5015718;27;118471;-75
2021/12/03 06:22:14;;;;;;;5.50;3.03;;;1.10;26.70;;;0.97;78.93;97432.19;5038661;27;119476;-76
2021/12/03 06:24:44;;;;;;;8.77;3.10;;;1.10;27.30;;;1.04;78.84;97437.94;5007915;28;128745;-77
2021/12/03 06:27:12;;;;;;;4.55;2.63;;;1.10;27.80;;;1.15;78.12;97435.81;5032566;27;129831;-77
2021/12/03 06:29:41;;;;;;;5.10;3.30;;;1.20;27.70;;;1.10;78.30;97448.50;5047335;27;119736;-76
2021/12/03 06:32:10;;;;;;;4.65;2.72;;;1.20;27.50;;;1.10;78.14;97433.25;5047155;27;119469;-77
2021/12/03 06:34:39;;;;;;;11.60;3.33;;;1.20;26.50;;;1.13;77.32;97429.97;5030742;27;129289;-75
2021/12/03 06:37:09;;;;;;;6.15;3.05;;;1.20;25.80;;;1.05;77.77;97439.47;5031362;27;129658;-76
2021/12/03 06:39:38;;;;;;;6.55;2.95;;;1.20;26.00;;;1.05;78.21;97444.81;5026801;28;119947;-77
2021/12/03 06:42:14;;;;;;;6.13;3.00;;;1.20;26.60;;;1.16;77.96;97448.09;5028159;28;119446;-76
2021/12/03 06:44:42;;;;;;;5.67;3.60;;;1.20;26.60;;;1.35;77.76;97439.13;5026294;28;130217;-77
2021/12/03 06:47:11;;;;;;;5.93;2.78;;;1.20;27.90;;;1.38;77.06;97450.00;5029095;27;129603;-77
2021/12/03 06:49:40;;;;;;;9.85;2.83;;;1.20;27.10;;;1.08;78.49;97448.78;5029874;28;119947;-77
2021/12/03 06:52:12;;;;;;;9.25;3.33;;;1.10;27.40;;;1.13;77.72;97454.03;5010595;28;119740;-77
2021/12/03 06:54:41;;;;;;;5.13;3.20;;;1.10;27.00;;;1.21;77.91;97457.88;4988520;28;130498;-76
2021/12/03 06:57:10;;;;;;;6.65;2.80;;;1.10;27.80;;;1.21;78.16;97455.19;5005050;28;130084;-76
2021/12/03 06:59:41;;;;;;;5.50;2.92;;;1.10;28.10;;;1.14;78.37;97454.81;5003594;28;121823;-76
2021/12/03 07:02:12;;;;;;;5.60;3.00;;;1.10;28.20;;;1.21;77.86;97460.53;5004817;28;122359;-76
2021/12/03 07:04:42;;;;;;;11.27;3.97;;;1.00;28.40;;;1.29;77.88;97464.38;4989492;28;128997;-76
2021/12/03 07:07:11;;;;;;;6.97;3.20;;;1.10;28.40;;;1.29;77.63;97461.72;4989480;28;130345;-76
2021/12/03 07:09:41;;;;;;;6.50;2.70;;;1.10;28.00;;;1.22;78.39;97456.78;5005806;28;119248;-75
2021/12/03 07:12:11;;;;;;;6.43;2.70;;;1.10;28.60;;;1.35;77.55;97472.00;5007466;28;119779;-75
2021/12/03 07:14:41;;;;;;;6.22;3.50;;;1.10;28.20;;;1.31;77.86;97476.38;5005760;28;130242;-75
2021/12/03 07:17:09;;;;;;;9.50;4.72;;;1.10;28.80;;;1.34;77.55;97475.78;5005561;28;130051;-75
2021/12/03 07:19:38;;;;;;;8.93;3.75;;;1.10;27.80;;;1.33;77.66;97465.38;5006175;28;119708;-76
2021/12/03 07:22:06;;;;;;;10.15;3.03;;;1.10;27.80;;;1.31;77.86;97475.56;5006492;28;119344;-77
2021/12/03 07:24:35;;;;;;;4.82;2.75;;;1.20;27.90;;;1.29;77.38;97488.44;5004381;28;130086;-76
2021/12/03 07:27:05;;;;;;;10.95;3.70;;;1.20;27.20;;;1.29;77.78;97489.22;5005748;28;130109;-70
2021/12/03 07:29:34;;;;;;;7.75;3.25;;;1.20;27.90;;;1.31;77.42;97481.72;5004899;28;119654;-78
2021/12/03 07:32:05;;;;;;;4.95;2.30;;;1.20;27.40;;;1.38;77.23;97490.09;5003348;28;119434;-77
2021/12/03 07:34:34;;;;;;;5.88;2.58;;;1.20;27.20;;;1.30;76.72;97485.47;5005179;28;129966;-78
2021/12/03 07:37:03;;;;;;;9.02;4.85;;;1.20;26.30;;;1.36;77.11;97484.28;4994604;28;129428;-82
2021/12/03 07:39:32;;;;;;;5.95;2.58;;;1.20;26.60;;;1.28;77.31;97487.66;4996221;28;118399;-83
2021/12/03 07:42:00;;;;;;;8.00;3.65;;;1.20;26.50;;;1.33;76.57;97490.22;5009632;28;119603;-81
2021/12/03 07:44:29;;;;;;;5.93;3.00;;;1.20;25.20;;;1.40;76.83;97495.97;4996579;28;128457;-82
2021/12/03 07:46:58;;;;;;;6.05;3.10;;;1.30;26.30;;;1.38;76.91;97492.00;5010790;28;129653;-82
2021/12/03 07:49:28;;;;;;;4.75;2.58;;;1.30;26.50;;;1.34;76.21;97502.50;4993040;28;121183;-75
2021/12/03 07:51:57;;;;;;;6.43;3.20;;;1.30;25.10;;;1.44;76.12;97491.56;5007807;28;121766;-78
2021/12/03 07:54:25;;;;;;;8.52;2.80;;;1.30;25.80;;;1.43;76.21;97490.00;4987375;28;129784;-75
2021/12/03 07:56:54;;;;;;;6.30;2.67;;;1.30;25.40;;;1.55;75.91;97491.34;5004892;28;130887;-77
2021/12/03 07:59:22;;;;;;;6.57;4.10;;;1.30;25.50;;;1.58;75.57;97488.09;4991118;28;119088;-84
2021/12/03 08:01:51;;;;;;;6.95;3.35;;;1.30;25.50;;;1.57;76.20;97484.63;4974656;28;118916;-83
2021/12/03 08:04:21;;;;;;;5.25;2.92;;;1.40;26.00;;;1.63;75.53;97487.19;4990544;28;129106;-81
2021/12/03 08:06:53;;;;;;;8.23;3.10;;;1.30;25.40;;;1.46;75.95;97495.84;5004748;28;130300;-77
2021/12/03 08:09:22;;;;;;;7.95;2.90;;;1.40;25.40;;;1.65;76.11;97506.38;5007753;28;119542;-78
2021/12/03 08:11:51;;;;;;;8.85;3.20;;;1.40;25.50;;;1.73;75.87;97508.31;5006841;28;119387;-78
2021/12/03 08:14:20;;;;;;;5.90;2.80;;;1.40;26.00;;;1.76;75.04;97508.53;5004245;28;130039;-76
2021/12/03 08:16:48;;;;;;;5.32;3.00;;;1.40;25.30;;;1.80;74.81;97516.75;5004454;28;129788;-77
2021/12/03 08:19:17;;;;;;;7.70;2.67;;;1.50;25.10;;;1.78;75.05;97514.38;4990046;28;118695;-80
2021/12/03 08:21:45;;;;;;;6.20;3.28;;;1.50;25.20;;;1.85;75.29;97519.28;5004583;28;119937;-79
2021/12/03 08:24:16;;;;;;;5.80;2.65;;;1.50;25.80;;;1.98;74.96;97520.34;4989666;28;129923;-76
2021/12/03 08:26:44;;;;;;;5.85;3.10;;;1.60;25.80;;;2.09;74.26;97524.38;5004276;28;130443;-77
2021/12/03 08:29:15;;;;;;;5.15;2.83;;;1.60;25.20;;;2.23;74.47;97526.97;4989977;28;119642;-77
2021/12/03 08:31:43;;;;;;;4.40;2.55;;;1.70;25.80;;;2.10;73.44;97530.50;4986627;28;119369;-77
2021/12/03 08:34:12;;;;;;;10.25;2.72;;;1.70;24.10;;;1.97;74.32;97526.78;5003300;28;129848;-76
2021/12/03 08:36:44;;;;;;;5.60;2.58;;;1.70;24.00;;;1.96;73.96;97522.53;5002593;28;130239;-76
2021/12/03 08:39:15;;;;;;;4.28;2.38;;;1.70;24.00;;;2.15;73.72;97525.81;4971485;28;122514;-77
2021/12/03 08:41:43;;;;;;;6.28;3.08;;;1.70;24.00;;;2.28;73.50;97520.72;4986119;28;121563;-76
2021/12/03 08:44:13;;;;;;;4.20;2.47;;;1.80;24.20;;;2.26;73.28;97530.91;5003858;28;130127;-77
2021/12/03 08:46:41;;;;;;;5.22;2.47;;;1.80;24.00;;;2.25;73.32;97532.03;5005120;28;129967;-77
2021/12/03 08:49:14;;;;;;;5.32;2.47;;;1.80;23.90;;;2.25;72.37;97546.19;5009030;28;119761;-77
2021/12/03 08:51:59;;;;;;;5.13;2.50;;;1.80;22.50;;;2.35;72.14;97555.88;5017606;28;119516;-77
2021/12/03 08:57:22;;;;;;;;;;;1.90;22.30;;;2.28;72.14;97560.88;5025978;28;129767;-77
2021/12/03 08:59:56;;;;;;;7.03;2.70;;;1.90;22.10;;;2.33;72.29;97558.06;5024656;28;119705;-77
2021/12/03 09:02:24;;;;;;;4.93;2.33;;;2.00;22.20;;;2.41;72.13;97560.00;5024238;28;119718;-77
2021/12/03 09:04:54;;;;;;;4.35;2.22;;;2.00;22.70;;;2.44;70.96;97567.41;5022619;28;129767;-77
2021/12/03 09:07:22;;;;;;;5.65;2.70;;;2.00;21.20;;;2.42;71.27;97566.94;5024066;28;129650;-77
2021/12/03 09:09:53;;;;;;;7.00;2.53;;;2.00;21.30;;;2.55;71.33;97559.16;5024362;28;119545;-77
2021/12/03 09:12:21;;;;;;;4.72;2.35;;;2.10;21.50;;;2.58;70.68;97569.25;5024607;28;119660;-77
2021/12/03 09:14:52;;;;;;;3.95;2.40;;;2.10;21.00;;;2.39;70.23;97574.81;5023956;28;129820;-77
2021/12/03 09:17:40;;;;;;;6.40;2.22;;;1.90;20.20;;;2.71;69.81;97568.38;5025475;28;128839;-77
2021/12/03 09:20:22;;;;;;;3.70;2.00;;;2.10;20.20;;;3.11;68.88;97563.03;5024198;28;119567;-78
2021/12/03 09:22:52;;;;;;;3.70;2.15;;;2.30;20.10;;;3.25;67.84;97560.25;5024087;28;119483;-77
2021/12/03 09:25:30;;;;;;;5.72;2.50;;;2.40;19.80;;;3.34;67.10;97568.34;5023846;28;129525;-77
2021/12/03 09:28:02;;;;;;;8.32;2.30;;;2.40;19.10;;;3.30;67.44;97567.38;5023801;28;130167;-77
2021/12/03 09:30:36;;;;;;;5.32;2.30;;;2.40;18.90;;;3.35;67.35;97569.91;5022728;28;122012;-77
2021/12/03 09:33:07;;;;;;;6.60;2.90;;;2.40;19.30;;;3.29;67.47;97571.16;5023724;28;123352;-77
2021/12/03 09:35:42;;;;;;;3.47;1.70;;;2.40;19.20;;;2.96;67.34;97564.25;5024611;28;129803;-77
2021/12/03 09:38:12;;;;;;;4.20;1.85;;;2.30;17.80;;;2.95;67.59;97567.25;5023676;28;129813;-76
2021/12/03 09:40:43;;;;;;;5.90;3.30;;;2.30;18.40;;;3.03;67.99;97579.88;5025579;28;119621;-78
2021/12/03 09:43:15;;;;;;;4.13;2.10;;;2.30;19.00;;;2.58;67.10;97590.69;5026238;28;119325;-77
2021/12/03 09:45:53;;;;;;;5.80;2.78;;;2.00;17.70;;;2.65;68.13;97577.63;5023426;28;129904;-77
2021/12/03 09:48:34;;;;;;;5.38;2.35;;;1.90;19.30;;;2.76;68.11;97575.47;5042664;27;129596;-77
2021/12/03 09:51:03;;;;;;;6.05;2.53;;;2.10;19.10;;;2.77;67.44;97583.22;5015447;28;120087;-76
2021/12/03 09:53:54;;;;;;;10.68;4.25;;;2.10;17.40;;;2.54;67.51;97570.94;5003771;28;119465;-77
2021/12/03 09:56:26;;;;;;;5.45;2.75;;;2.00;18.10;;;2.24;67.91;97581.28;5002054;28;131007;-77
2021/12/03 10:01:45;;;;;;;5.82;1.92;;;1.80;17.50;;;2.09;68.96;97583.25;5006558;28;119850;-75
2021/12/03 10:04:33;;;;;;;6.22;3.97;;;1.90;18.30;;;2.16;69.18;97578.25;5002664;28;119552;-75
2021/12/03 10:12:49;;;;;;;5.50;2.00;;;1.80;18.80;;;2.40;68.56;97584.41;5006050;28;119538;-75
2021/12/03 10:15:23;;;;;;;5.00;2.05;;;1.90;18.40;;;2.53;67.82;97591.59;5003873;28;119567;-75
2021/12/03 10:18:01;;;;;;;5.00;1.80;;;1.90;17.90;;;2.53;67.74;97593.47;4986283;28;130047;-75
2021/12/03 10:20:39;;;;;;;5.30;2.08;;;1.90;17.70;;;2.56;68.33;97598.22;5002886;28;129624;-75
2021/12/03 10:32:23;;;;;;;;;;;1.70;17.60;;;2.04;69.13;97599.41;5003155;28;129477;-76
2021/12/03 10:41:08;;;;;;;4.47;2.10;;;1.80;18.10;;;2.22;69.41;97605.69;5007252;28;130341;-75
2021/12/03 10:52:27;;;;;;;3.60;1.70;;;1.90;18.50;;;2.23;69.30;97612.63;4945794;28;129759;-75
2021/12/03 14:38:13;;;;;;;7.35;2.95;;;-0.60;28.90;;;-0.90;80.48;97730.41;5023013;28;118961;-81
2021/12/03 14:41:08;;;;;;;5.43;2.63;;;-0.70;29.40;;;-0.92;80.80;97725.38;5008615;28;119533;-78
2021/12/03 14:49:39;;;;;;;5.00;2.55;;;-0.80;31.30;;;-0.99;81.30;97740.09;5004031;28;119449;-80
2021/12/03 14:52:16;;;;;;;5.10;2.67;;;-0.90;31.40;;;-1.04;81.58;97748.91;5009065;28;119292;-80
2021/12/03 14:54:53;;;;;;;5.35;2.60;;;-1.00;32.60;;;-1.05;81.57;97746.53;5006345;28;130328;-80
2021/12/03 15:00:19;;;;;;;6.22;2.75;;;-0.90;30.70;;;-1.02;81.48;97745.97;5007801;28;118803;-80
2021/12/03 15:06:04;;;;;;;4.95;2.63;;;-1.00;31.90;;;-1.14;81.85;97744.47;5008526;28;129866;-81
2021/12/03 15:08:39;;;;;;;5.97;2.65;;;-1.00;31.90;;;-1.07;81.09;97748.69;5007657;28;129971;-81
2021/12/03 15:22:59;;;;;;;8.90;2.72;;;-1.00;32.00;;;-1.19;82.15;97773.75;5007574;28;118929;-81